Time;durP1;ratioP1;P1;durP2;ratioP2;P2;SDS_P1;SDS_P2;PMS_P1;PMS_P2;Temp;Humidity;BMP_temperature;BMP_pressure;BME280_temperature;BME280_humidity;BME280_pressure;Samples;Min_cycle;Max_cycle;Signal;HPM_P1;HPM_P2
2021/08/25 00:01:31;;;;;;;11.83;10.80;;;15.80;99.90;;;;;;4973172;28;20193;-64
2021/08/25 00:03:57;;;;;;;11.53;10.27;;;15.80;99.90;;;;;;4981994;28;20440;-64
2021/08/25 00:06:22;;;;;;;12.70;11.40;;;15.80;99.90;;;;;;4980007;28;20456;-63
2021/08/25 00:08:48;;;;;;;11.00;10.03;;;15.70;99.90;;;;;;4990154;28;20204;-66
2021/08/25 00:11:14;;;;;;;11.97;10.87;;;15.70;99.90;;;;;;4975953;28;20182;-64
2021/08/25 00:13:40;;;;;;;13.80;12.60;;;15.70;99.90;;;;;;4979148;28;20561;-61
2021/08/25 00:16:05;;;;;;;12.87;11.77;;;15.70;99.90;;;;;;4993802;28;20200;-62
2021/08/25 00:18:31;;;;;;;14.67;13.20;;;15.60;99.90;;;;;;4979428;28;20166;-64
2021/08/25 00:20:58;;;;;;;12.90;11.60;;;15.50;99.90;;;;;;4974550;28;20184;-64
2021/08/25 00:23:24;;;;;;;13.40;12.10;;;15.40;99.90;;;;;;4991989;28;20307;-65
2021/08/25 00:25:53;;;;;;;14.27;12.97;;;15.30;99.90;;;;;;4993782;28;20503;-64
2021/08/25 00:28:19;;;;;;;13.53;12.10;;;15.30;99.90;;;;;;4978486;28;20832;-65
2021/08/25 00:30:45;;;;;;;12.30;11.20;;;15.30;99.90;;;;;;4973799;28;20433;-64
2021/08/25 00:33:10;;;;;;;12.60;11.40;;;15.40;99.90;;;;;;4974118;28;20455;-64
2021/08/25 00:35:36;;;;;;;11.57;10.57;;;15.40;99.90;;;;;;4974334;28;20685;-64
2021/08/25 00:38:02;;;;;;;13.00;11.77;;;15.30;99.90;;;;;;4973971;28;20231;-64
2021/08/25 00:40:27;;;;;;;13.70;12.50;;;15.30;99.90;;;;;;4973621;28;20232;-64
2021/08/25 00:42:53;;;;;;;14.73;12.07;;;15.30;99.90;;;;;;4973944;28;20171;-64
2021/08/25 00:45:19;;;;;;;14.47;13.07;;;15.10;99.90;;;;;;4974382;28;20545;-61
2021/08/25 00:47:45;;;;;;;12.27;11.23;;;15.20;99.90;;;;;;4974184;28;20175;-64
2021/08/25 00:50:12;;;;;;;13.07;11.87;;;15.20;99.90;;;;;;4974315;28;20196;-63
2021/08/25 00:52:40;;;;;;;13.07;11.90;;;15.20;99.90;;;;;;4974692;28;20222;-64
2021/08/25 00:55:07;;;;;;;13.63;12.43;;;15.20;99.90;;;;;;4977859;28;20923;-64
2021/08/25 00:57:36;;;;;;;14.80;13.50;;;15.10;99.90;;;;;;4978092;28;20451;-64
2021/08/25 01:00:06;;;;;;;13.70;12.40;;;15.10;99.90;;;;;;4977171;28;20485;-64
2021/08/25 01:02:43;;;;;;;14.90;13.43;;;15.10;99.90;;;;;;4977902;28;20400;-64
2021/08/25 01:05:10;;;;;;;12.80;11.50;;;15.10;99.90;;;;;;4977859;28;20388;-63
2021/08/25 01:07:39;;;;;;;14.27;12.87;;;15.00;99.90;;;;;;4977997;28;20447;-64
2021/08/25 01:10:31;;;;;;;14.57;12.87;;;14.80;99.90;;;;;;4977365;28;20511;-64
2021/08/25 01:13:07;;;;;;;15.20;13.70;;;14.90;99.90;;;;;;4977589;28;20420;-64
2021/08/25 01:15:35;;;;;;;13.60;12.30;;;14.90;99.90;;;;;;4981449;28;20934;-65
2021/08/25 01:18:05;;;;;;;13.47;11.97;;;14.90;99.90;;;;;;4973936;28;20451;-64
2021/08/25 01:20:32;;;;;;;13.70;12.30;;;14.80;99.90;;;;;;4976606;28;20443;-64
2021/08/25 01:22:59;;;;;;;13.93;12.57;;;14.80;99.90;;;;;;4978295;28;20420;-63
2021/08/25 01:25:26;;;;;;;13.03;11.87;;;14.90;99.90;;;;;;4974729;28;20420;-63
2021/08/25 01:27:58;;;;;;;13.40;12.10;;;14.90;99.90;;;;;;4967785;28;21061;-63
2021/08/25 01:30:30;;;;;;;11.97;10.77;;;14.90;99.90;;;;;;4967779;28;20439;-63
2021/08/25 01:32:59;;;;;;;12.90;11.70;;;14.80;99.90;;;;;;4965522;28;20533;-64
2021/08/25 01:35:38;;;;;;;11.90;10.80;;;14.80;99.90;;;;;;4976964;28;20408;-64
2021/08/25 01:38:07;;;;;;;13.37;12.07;;;14.90;99.90;;;;;;4966203;28;20495;-63
2021/08/25 01:40:36;;;;;;;15.50;14.07;;;14.90;99.90;;;;;;4977830;28;20834;-63
2021/08/25 01:43:03;;;;;;;13.90;12.50;;;14.80;99.90;;;;;;4971199;28;20750;-63
2021/08/25 01:45:29;;;;;;;14.87;13.47;;;14.70;99.90;;;;;;4966405;28;20414;-64
2021/08/25 01:47:55;;;;;;;13.13;11.80;;;14.70;99.90;;;;;;4970298;28;20427;-64
2021/08/25 01:50:21;;;;;;;12.03;10.97;;;14.70;99.90;;;;;;4974974;28;20921;-64
2021/08/25 01:52:47;;;;;;;12.40;11.30;;;14.80;99.90;;;;;;4973091;28;20557;-65
2021/08/25 01:55:12;;;;;;;11.23;10.23;;;14.80;99.90;;;;;;4978940;28;20889;-65
2021/08/25 01:57:38;;;;;;;12.40;11.30;;;14.80;99.90;;;;;;4973886;28;20275;-65
2021/08/25 02:00:05;;;;;;;12.33;11.17;;;14.80;99.90;;;;;;4977821;28;20196;-64
2021/08/25 02:02:31;;;;;;;12.53;11.37;;;14.80;99.90;;;;;;4974855;28;20187;-64
2021/08/25 02:04:56;;;;;;;14.60;13.30;;;14.70;99.90;;;;;;4971337;28;20414;-64
2021/08/25 02:07:22;;;;;;;13.80;12.60;;;14.60;99.90;;;;;;4976412;28;20170;-64
2021/08/25 02:09:47;;;;;;;13.13;11.70;;;14.60;99.90;;;;;;4978914;28;20763;-64
2021/08/25 02:12:13;;;;;;;11.03;10.03;;;14.50;99.90;;;;;;4979369;28;20179;-64
2021/08/25 02:14:39;;;;;;;12.60;11.50;;;14.50;99.90;;;;;;4975233;28;20175;-64
2021/08/25 02:17:06;;;;;;;13.40;12.00;;;14.50;99.90;;;;;;4970386;28;20676;-64
2021/08/25 02:19:33;;;;;;;14.90;13.50;;;14.40;99.90;;;;;;4973308;28;20205;-64
2021/08/25 02:21:59;;;;;;;13.83;12.57;;;14.40;99.90;;;;;;4974726;28;20926;-64
2021/08/25 02:24:24;;;;;;;12.77;11.50;;;14.50;99.90;;;;;;4975894;28;20410;-63
2021/08/25 02:26:50;;;;;;;14.13;12.73;;;14.50;99.90;;;;;;4975730;28;20989;-64
2021/08/25 02:29:15;;;;;;;12.67;11.57;;;14.40;99.90;;;;;;4975844;28;20288;-64
2021/08/25 02:31:41;;;;;;;13.33;12.20;;;14.50;99.90;;;;;;4976104;28;20234;-63
2021/08/25 02:34:07;;;;;;;12.63;11.50;;;14.40;99.90;;;;;;4972512;28;20278;-63
2021/08/25 02:36:32;;;;;;;11.20;10.23;;;14.40;99.90;;;;;;4975086;28;20257;-63
2021/08/25 02:38:58;;;;;;;13.27;11.20;;;14.50;99.90;;;;;;4970806;28;20205;-64
2021/08/25 02:41:23;;;;;;;11.33;10.13;;;14.40;99.90;;;;;;4971209;28;20203;-64
2021/08/25 02:43:49;;;;;;;14.07;12.67;;;14.40;99.90;;;;;;4974453;28;20168;-63
2021/08/25 02:46:15;;;;;;;12.90;11.80;;;14.20;99.90;;;;;;4966874;28;20594;-64
2021/08/25 02:48:41;;;;;;;13.20;12.00;;;14.30;99.90;;;;;;4972400;28;20200;-64
2021/08/25 02:51:07;;;;;;;13.73;12.37;;;14.30;99.90;;;;;;4973362;28;20997;-63
2021/08/25 02:53:33;;;;;;;12.33;11.13;;;14.30;99.90;;;;;;4970900;28;20518;-63
2021/08/25 02:55:58;;;;;;;12.53;11.33;;;14.30;99.90;;;;;;4966709;28;20175;-64
2021/08/25 02:58:24;;;;;;;13.03;11.83;;;14.30;99.90;;;;;;4963235;28;20653;-63
2021/08/25 03:00:50;;;;;;;13.60;11.90;;;14.10;99.90;;;;;;4969570;28;20187;-65
2021/08/25 03:03:15;;;;;;;10.93;9.93;;;14.20;99.90;;;;;;4973530;28;20658;-65
2021/08/25 03:05:41;;;;;;;15.30;13.77;;;14.10;99.90;;;;;;4967107;28;20674;-65
2021/08/25 03:08:06;;;;;;;13.30;11.90;;;14.10;99.90;;;;;;4970097;28;20249;-63
2021/08/25 03:10:32;;;;;;;12.70;11.57;;;14.10;99.90;;;;;;4994133;28;20232;-63
2021/08/25 03:12:58;;;;;;;12.50;11.40;;;14.10;99.90;;;;;;4974178;28;20677;-64
2021/08/25 03:15:23;;;;;;;13.13;11.80;;;14.10;99.90;;;;;;4973841;28;20220;-65
2021/08/25 03:17:49;;;;;;;15.33;13.47;;;14.00;99.90;;;;;;4970251;28;20250;-64
2021/08/25 03:20:15;;;;;;;11.70;10.60;;;14.10;99.90;;;;;;4970991;28;20320;-64
2021/08/25 03:22:41;;;;;;;14.30;12.90;;;14.10;99.90;;;;;;4968008;28;20181;-64
2021/08/25 03:25:09;;;;;;;15.07;13.67;;;14.10;99.90;;;;;;4972982;28;20414;-64
2021/08/25 03:27:36;;;;;;;15.70;14.13;;;14.10;99.90;;;;;;4973252;28;20188;-65
2021/08/25 03:30:02;;;;;;;14.37;13.07;;;14.00;99.90;;;;;;4976006;28;20521;-63
2021/08/25 03:32:28;;;;;;;14.37;13.07;;;14.00;99.90;;;;;;4970861;28;20430;-64
2021/08/25 03:34:53;;;;;;;13.53;12.33;;;14.00;99.90;;;;;;4973519;28;20942;-64
2021/08/25 03:37:19;;;;;;;16.93;15.20;;;14.00;99.90;;;;;;4963280;28;20270;-63
2021/08/25 03:39:45;;;;;;;15.80;14.37;;;14.00;99.90;;;;;;4970878;28;20221;-64
2021/08/25 03:42:10;;;;;;;12.27;11.17;;;13.80;99.90;;;;;;4970619;28;20169;-63
2021/08/25 03:44:37;;;;;;;14.33;12.93;;;13.90;99.90;;;;;;4968716;28;20170;-64
2021/08/25 03:47:04;;;;;;;13.70;12.40;;;13.80;99.90;;;;;;4966258;28;20171;-63
2021/08/25 03:49:30;;;;;;;14.00;12.50;;;13.80;99.90;;;;;;4970160;28;20466;-65
2021/08/25 03:51:55;;;;;;;12.67;11.50;;;13.70;99.90;;;;;;4977741;28;20422;-61
2021/08/25 03:54:21;;;;;;;16.40;14.83;;;13.70;99.90;;;;;;4969809;28;20424;-63
2021/08/25 03:56:46;;;;;;;13.93;12.53;;;13.70;99.90;;;;;;4963523;28;20204;-63
2021/08/25 03:59:12;;;;;;;16.33;14.47;;;13.70;99.90;;;;;;4971799;28;20669;-64
2021/08/25 04:01:38;;;;;;;14.53;13.23;;;13.70;99.90;;;;;;4974645;28;20197;-64
2021/08/25 04:04:06;;;;;;;17.83;14.90;;;13.80;99.90;;;;;;4964719;28;20174;-62
2021/08/25 04:06:32;;;;;;;12.93;11.77;;;13.70;99.90;;;;;;4962959;28;20166;-63
2021/08/25 04:08:58;;;;;;;16.87;14.83;;;13.80;99.90;;;;;;4969465;28;20439;-63
2021/08/25 04:11:23;;;;;;;14.70;13.20;;;13.70;99.90;;;;;;4971387;28;20413;-64
2021/08/25 04:13:49;;;;;;;12.97;11.67;;;13.70;99.90;;;;;;4974058;28;20177;-63
2021/08/25 04:16:14;;;;;;;12.77;11.67;;;13.70;99.90;;;;;;4974786;28;20569;-63
2021/08/25 04:18:40;;;;;;;15.70;14.20;;;13.70;99.90;;;;;;4971668;28;20295;-63
2021/08/25 04:21:06;;;;;;;15.43;13.87;;;13.60;99.90;;;;;;4966281;28;20180;-63
2021/08/25 04:23:31;;;;;;;14.00;12.60;;;13.60;99.90;;;;;;4964366;28;20654;-62
2021/08/25 04:25:57;;;;;;;12.63;11.50;;;13.70;99.90;;;;;;4973023;28;20519;-64
2021/08/25 04:28:22;;;;;;;14.80;13.30;;;13.80;99.90;;;;;;4973319;28;20185;-62
2021/08/25 04:30:48;;;;;;;13.80;12.50;;;13.80;99.90;;;;;;4971293;28;20185;-63
2021/08/25 04:33:14;;;;;;;13.27;11.90;;;13.80;99.90;;;;;;4972713;28;20645;-62
2021/08/25 04:35:39;;;;;;;13.43;12.13;;;13.80;99.90;;;;;;4962970;28;20188;-62
2021/08/25 04:38:05;;;;;;;14.47;13.17;;;13.80;99.90;;;;;;4963126;28;20544;-62
2021/08/25 04:40:31;;;;;;;15.10;13.60;;;13.80;99.90;;;;;;4962173;28;20587;-62
2021/08/25 04:42:57;;;;;;;14.60;13.10;;;13.80;99.90;;;;;;4969124;28;20174;-62
2021/08/25 04:45:23;;;;;;;13.80;12.50;;;13.90;99.90;;;;;;4968795;28;20204;-64
2021/08/25 04:47:48;;;;;;;15.70;14.30;;;13.80;99.90;;;;;;4974929;28;20428;-62
2021/08/25 04:50:14;;;;;;;12.77;11.60;;;13.70;99.90;;;;;;4987476;28;20224;-64
2021/08/25 04:52:40;;;;;;;15.43;13.83;;;13.70;99.90;;;;;;4962764;28;20181;-62
2021/08/25 04:55:06;;;;;;;15.37;13.90;;;13.80;99.90;;;;;;4976058;28;20658;-62
2021/08/25 04:57:32;;;;;;;15.50;14.10;;;13.80;99.90;;;;;;4965330;28;20234;-63
2021/08/25 04:59:57;;;;;;;12.50;11.30;;;13.80;99.90;;;;;;4962463;28;20473;-62
2021/08/25 05:02:23;;;;;;;14.23;12.80;;;13.80;99.90;;;;;;4971868;28;20188;-62
2021/08/25 05:04:48;;;;;;;14.97;13.47;;;13.80;99.90;;;;;;4973617;28;20174;-62
2021/08/25 05:07:14;;;;;;;12.53;11.33;;;13.80;99.90;;;;;;4966007;28;20210;-64
2021/08/25 05:09:40;;;;;;;16.00;14.60;;;13.90;99.90;;;;;;4962259;28;20191;-63
2021/08/25 05:12:06;;;;;;;14.07;12.60;;;13.90;99.90;;;;;;4962803;28;20927;-64
2021/08/25 05:14:32;;;;;;;16.87;14.40;;;13.90;99.90;;;;;;4971164;28;20601;-62
2021/08/25 05:16:58;;;;;;;14.13;12.73;;;13.90;99.90;;;;;;4965208;28;20245;-63
2021/08/25 05:19:24;;;;;;;13.23;11.90;;;13.80;99.90;;;;;;4965000;28;20441;-63
2021/08/25 05:21:49;;;;;;;14.00;12.70;;;13.90;99.90;;;;;;4974465;28;20172;-63
2021/08/25 05:24:15;;;;;;;13.83;12.60;;;13.90;99.90;;;;;;4964863;28;20175;-63
2021/08/25 05:26:41;;;;;;;16.77;15.07;;;14.00;99.90;;;;;;4963585;28;20202;-64
2021/08/25 05:29:06;;;;;;;13.93;12.60;;;14.10;99.90;;;;;;4961714;28;20196;-63
2021/08/25 05:31:32;;;;;;;14.63;13.17;;;14.10;99.90;;;;;;4972145;28;20169;-63
2021/08/25 05:33:58;;;;;;;13.17;11.83;;;14.10;99.90;;;;;;4963893;28;20191;-62
2021/08/25 05:36:24;;;;;;;15.83;13.30;;;14.10;99.90;;;;;;4970321;28;20431;-63
2021/08/25 05:38:50;;;;;;;12.60;11.50;;;14.20;99.90;;;;;;4969288;28;20462;-63
2021/08/25 05:41:16;;;;;;;12.80;11.20;;;14.30;99.90;;;;;;4965258;28;20170;-63
2021/08/25 05:43:41;;;;;;;14.20;12.90;;;14.30;99.90;;;;;;4975753;28;20185;-63
2021/08/25 05:46:07;;;;;;;13.33;12.13;;;14.20;99.90;;;;;;4968178;28;20176;-63
2021/08/25 05:48:32;;;;;;;13.67;12.47;;;14.20;99.90;;;;;;4972129;28;20184;-62
2021/08/25 05:50:58;;;;;;;13.07;11.80;;;14.30;99.90;;;;;;4977646;28;20207;-62
2021/08/25 05:53:25;;;;;;;19.90;16.00;;;14.40;99.90;;;;;;4977714;28;20560;-63
2021/08/25 05:55:54;;;;;;;14.87;13.47;;;14.40;99.90;;;;;;4974574;28;20699;-62
2021/08/25 05:58:20;;;;;;;14.37;12.90;;;14.50;99.90;;;;;;4973449;28;20449;-63
2021/08/25 06:00:45;;;;;;;13.90;12.60;;;14.50;99.90;;;;;;4969399;28;20921;-64
2021/08/25 06:03:11;;;;;;;13.80;12.50;;;14.60;99.90;;;;;;4975796;28;20257;-63
2021/08/25 06:05:36;;;;;;;15.80;14.30;;;14.60;99.90;;;;;;4976459;28;20203;-63
2021/08/25 06:08:02;;;;;;;13.77;12.57;;;14.70;99.90;;;;;;4980810;28;20191;-62
2021/08/25 06:10:28;;;;;;;16.37;14.77;;;14.70;99.90;;;;;;4971353;28;20631;-62
2021/08/25 06:12:53;;;;;;;14.53;13.23;;;14.80;99.90;;;;;;4980043;28;20307;-62
2021/08/25 06:15:19;;;;;;;14.57;13.03;;;14.80;99.90;;;;;;4983178;28;20187;-65
2021/08/25 06:17:45;;;;;;;15.87;14.27;;;15.00;99.90;;;;;;4990151;28;20652;-62
2021/08/25 06:20:11;;;;;;;14.40;13.13;;;15.10;99.90;;;;;;4979691;28;21024;-62
2021/08/25 06:22:37;;;;;;;16.10;13.20;;;15.20;99.90;;;;;;5028863;22;20234;-57
2021/08/25 06:25:03;;;;;;;13.07;11.90;;;15.40;99.90;;;;;;5014727;28;20471;-59
2021/08/25 06:27:28;;;;;;;12.93;11.73;;;15.50;99.90;;;;;;5015317;28;20183;-61
2021/08/25 06:29:54;;;;;;;13.47;11.73;;;15.60;99.90;;;;;;5015093;28;20503;-59
2021/08/25 06:32:20;;;;;;;14.10;12.80;;;15.60;99.90;;;;;;5015408;28;20199;-59
2021/08/25 06:34:46;;;;;;;13.27;12.13;;;15.70;99.90;;;;;;5014607;28;20261;-58
2021/08/25 06:37:12;;;;;;;13.63;12.43;;;15.80;99.90;;;;;;5014497;28;20265;-59
2021/08/25 06:39:37;;;;;;;14.20;12.80;;;15.90;99.90;;;;;;5014688;28;20842;-58
2021/08/25 06:42:03;;;;;;;16.60;14.97;;;15.90;99.90;;;;;;5012093;28;20197;-58
2021/08/25 06:44:29;;;;;;;15.60;14.10;;;16.00;99.90;;;;;;5014972;28;20173;-59
2021/08/25 06:46:55;;;;;;;15.17;13.70;;;16.00;99.90;;;;;;5015407;28;20418;-58
2021/08/25 06:49:20;;;;;;;13.47;11.60;;;16.00;99.90;;;;;;5013762;28;20209;-57
2021/08/25 06:51:47;;;;;;;13.33;11.90;;;16.10;99.90;;;;;;5014628;28;20209;-59
2021/08/25 06:54:12;;;;;;;16.30;14.60;;;16.20;99.90;;;;;;5015099;28;20174;-57
2021/08/25 06:56:38;;;;;;;13.43;12.10;;;16.40;99.90;;;;;;5014175;28;20450;-59
2021/08/25 06:59:04;;;;;;;13.50;12.30;;;16.40;99.90;;;;;;5014881;28;20399;-59
2021/08/25 07:01:30;;;;;;;13.13;12.00;;;16.40;99.90;;;;;;5011101;28;20441;-60
2021/08/25 07:03:56;;;;;;;12.37;11.17;;;16.30;99.90;;;;;;5013209;28;20548;-59
2021/08/25 07:06:21;;;;;;;10.63;9.70;;;16.50;99.90;;;;;;5012637;28;20176;-59
2021/08/25 07:08:47;;;;;;;14.97;11.27;;;16.60;99.90;;;;;;5013663;28;20175;-59
2021/08/25 07:11:13;;;;;;;11.57;10.47;;;16.80;99.90;;;;;;5014547;28;20194;-58
2021/08/25 07:13:39;;;;;;;13.80;12.37;;;16.90;99.90;;;;;;5012116;28;20175;-59
2021/08/25 07:16:07;;;;;;;12.03;10.83;;;16.70;99.90;;;;;;5014697;28;20552;-59
2021/08/25 07:18:33;;;;;;;12.93;11.80;;;16.70;99.90;;;;;;5013414;28;20197;-57
2021/08/25 07:20:59;;;;;;;11.97;10.80;;;16.90;99.90;;;;;;5014460;28;20988;-59
2021/08/25 07:23:25;;;;;;;10.90;10.00;;;17.00;99.90;;;;;;4996961;28;20430;-57
2021/08/25 07:25:51;;;;;;;11.60;10.50;;;16.90;99.90;;;;;;5014542;28;20409;-59
2021/08/25 07:28:19;;;;;;;10.93;9.83;;;17.00;99.90;;;;;;5014292;28;20182;-57
2021/08/25 07:30:45;;;;;;;12.13;10.73;;;17.20;99.90;;;;;;5014594;28;20175;-58
2021/08/25 07:33:15;;;;;;;10.13;9.23;;;17.20;99.90;;;;;;5014362;28;20811;-59
2021/08/25 07:35:41;;;;;;;10.57;9.57;;;17.20;99.90;;;;;;5015167;28;20156;-58
2021/08/25 07:38:07;;;;;;;12.43;11.30;;;17.20;99.90;;;;;;5014711;28;20528;-59
2021/08/25 07:40:33;;;;;;;12.53;11.30;;;17.30;99.90;;;;;;5014571;28;20513;-59
2021/08/25 07:42:58;;;;;;;9.97;8.97;;;17.30;99.90;;;;;;5014264;28;20199;-58
2021/08/25 07:45:24;;;;;;;11.00;9.90;;;17.40;99.90;;;;;;5014283;28;20532;-58
2021/08/25 07:47:50;;;;;;;11.17;10.03;;;17.50;99.90;;;;;;5014111;28;20186;-59
2021/08/25 07:50:15;;;;;;;10.93;9.93;;;17.20;99.90;;;;;;5013913;28;20261;-59
2021/08/25 07:52:44;;;;;;;11.50;10.30;;;17.20;99.90;;;;;;5015327;28;20186;-59
2021/08/25 07:55:10;;;;;;;10.27;9.27;;;17.10;99.90;;;;;;5014503;28;20179;-59
2021/08/25 07:57:36;;;;;;;10.87;8.83;;;17.20;99.90;;;;;;5013806;28;20492;-58
2021/08/25 08:00:03;;;;;;;10.17;9.17;;;17.30;99.90;;;;;;5014014;28;20814;-57
2021/08/25 08:02:29;;;;;;;10.03;9.13;;;17.30;99.90;;;;;;5013508;28;20191;-58
2021/08/25 08:04:54;;;;;;;12.07;8.30;;;17.50;99.90;;;;;;4996382;28;20407;-59
2021/08/25 08:07:20;;;;;;;10.03;9.17;;;17.70;99.90;;;;;;5013762;28;20607;-59
2021/08/25 08:09:46;;;;;;;10.10;9.10;;;17.70;99.90;;;;;;5013796;28;20576;-59
2021/08/25 08:12:12;;;;;;;9.37;8.57;;;17.70;99.90;;;;;;5013238;28;20199;-59
2021/08/25 08:14:38;;;;;;;11.33;10.33;;;17.50;99.90;;;;;;5013892;28;20403;-59
2021/08/25 08:17:05;;;;;;;10.47;9.50;;;17.40;99.90;;;;;;5014048;28;20471;-59
2021/08/25 08:19:33;;;;;;;10.33;9.30;;;17.40;99.90;;;;;;5013970;28;20272;-59
2021/08/25 08:22:00;;;;;;;11.57;8.93;;;17.50;99.90;;;;;;5013186;28;20450;-60
2021/08/25 08:24:30;;;;;;;9.57;8.67;;;17.60;99.90;;;;;;5013890;28;20790;-60
2021/08/25 08:26:58;;;;;;;9.67;8.57;;;17.90;99.90;;;;;;5013440;28;20410;-58
2021/08/25 08:29:24;;;;;;;9.00;8.30;;;17.90;99.90;;;;;;5013771;28;20492;-58
2021/08/25 08:31:49;;;;;;;9.60;8.70;;;17.90;99.90;;;;;;5013768;28;20477;-59
2021/08/25 08:34:15;;;;;;;9.50;8.50;;;17.80;99.90;;;;;;5013847;28;20183;-59
2021/08/25 08:36:41;;;;;;;10.10;9.10;;;17.90;99.90;;;;;;5013489;28;20285;-57
2021/08/25 08:39:06;;;;;;;9.70;8.70;;;18.00;99.90;;;;;;5012753;28;20263;-59
2021/08/25 08:41:32;;;;;;;9.13;8.37;;;18.10;99.90;;;;;;5013022;28;20191;-59
2021/08/25 08:43:57;;;;;;;8.90;8.00;;;18.30;99.90;;;;;;5013509;28;20171;-59
2021/08/25 08:46:24;;;;;;;7.50;6.77;;;18.40;99.90;;;;;;5013326;28;20178;-59
2021/08/25 08:48:52;;;;;;;7.83;7.13;;;18.60;99.90;;;;;;5013270;28;20222;-59
2021/08/25 08:51:24;;;;;;;10.17;7.10;;;18.40;99.90;;;;;;5013258;28;20939;-58
2021/08/25 08:53:52;;;;;;;8.07;7.27;;;18.40;99.90;;;;;;5013139;28;20915;-58
2021/08/25 08:56:18;;;;;;;7.63;6.67;;;18.30;99.90;;;;;;5012273;28;20415;-58
2021/08/25 08:58:44;;;;;;;6.90;6.27;;;18.20;99.90;;;;;;5013291;28;20418;-58
2021/08/25 09:01:10;;;;;;;6.97;6.27;;;18.30;99.90;;;;;;5013233;28;20900;-58
2021/08/25 09:03:39;;;;;;;6.60;6.00;;;18.50;99.90;;;;;;5013646;28;20430;-58
2021/08/25 09:06:06;;;;;;;7.53;5.70;;;18.90;99.90;;;;;;5013288;28;20403;-59
2021/08/25 09:08:37;;;;;;;6.20;5.00;;;18.80;99.90;;;;;;5013178;28;20399;-59
2021/08/25 09:11:13;;;;;;;6.00;5.40;;;18.90;99.90;;;;;;5012531;28;20907;-59
2021/08/25 09:13:48;;;;;;;5.77;5.23;;;18.90;99.90;;;;;;5013659;28;20395;-59
2021/08/25 09:16:30;;;;;;;6.90;6.30;;;19.10;99.90;;;;;;5016841;28;20410;-59
2021/08/25 09:19:17;;;;;;;7.00;6.00;;;19.10;99.90;;;;;;5016732;28;20427;-59
2021/08/25 09:21:51;;;;;;;7.93;6.43;;;19.00;99.90;;;;;;5016745;28;20533;-57
2021/08/25 09:24:22;;;;;;;6.90;6.10;;;19.00;99.90;;;;;;5017310;28;20399;-58
2021/08/25 09:27:06;;;;;;;6.37;5.57;;;19.20;99.90;;;;;;5016488;28;20395;-59
2021/08/25 09:29:32;;;;;;;6.80;6.10;;;19.50;99.90;;;;;;4997038;28;20415;-58
2021/08/25 09:31:58;;;;;;;6.80;6.20;;;19.50;99.90;;;;;;4997461;28;20916;-59
2021/08/25 09:34:34;;;;;;;6.70;6.10;;;19.70;99.90;;;;;;4999898;28;20172;-59
2021/08/25 09:37:09;;;;;;;6.90;6.30;;;19.70;99.90;;;;;;5013586;28;20200;-59
2021/08/25 09:39:46;;;;;;;6.20;5.60;;;19.90;99.90;;;;;;4999961;28;20944;-58
2021/08/25 09:42:13;;;;;;;7.37;6.53;;;20.00;99.90;;;;;;5016432;28;20418;-58
2021/08/25 09:44:39;;;;;;;6.97;6.27;;;20.00;99.90;;;;;;5016324;28;20419;-56
2021/08/25 09:47:04;;;;;;;6.10;5.50;;;20.00;99.90;;;;;;5016769;28;20969;-57
2021/08/25 09:49:30;;;;;;;5.80;5.23;;;20.20;99.90;;;;;;5016353;28;20263;-57
2021/08/25 09:51:56;;;;;;;9.37;6.63;;;20.40;99.90;;;;;;5016423;28;20187;-57
2021/08/25 09:54:22;;;;;;;8.10;6.17;;;20.50;99.90;;;;;;5017498;28;20172;-59
2021/08/25 09:56:51;;;;;;;7.60;6.00;;;20.70;99.90;;;;;;5015898;28;20191;-59
2021/08/25 09:59:17;;;;;;;6.53;5.17;;;20.70;99.90;;;;;;5015811;28;20164;-58
2021/08/25 10:01:43;;;;;;;5.80;5.30;;;20.90;99.90;;;;;;5016050;28;20433;-58
2021/08/25 10:04:11;;;;;;;9.47;5.77;;;21.00;99.90;;;;;;5018516;28;20160;-59
2021/08/25 10:06:40;;;;;;;8.47;6.20;;;21.30;99.90;;;;;;5015878;28;20411;-56
2021/08/25 10:09:07;;;;;;;5.90;5.40;;;21.20;99.90;;;;;;5016269;28;20403;-59
2021/08/25 10:11:36;;;;;;;5.60;5.10;;;21.30;99.90;;;;;;5015930;28;20477;-59
2021/08/25 10:14:13;;;;;;;5.10;4.70;;;21.50;99.90;;;;;;5015841;28;20429;-59
2021/08/25 10:16:43;;;;;;;5.20;4.70;;;21.40;99.90;;;;;;5015339;28;20534;-58
2021/08/25 10:19:34;;;;;;;5.80;5.10;;;21.30;99.90;;;;;;5015656;28;20420;-59
2021/08/25 10:22:01;;;;;;;5.37;4.87;;;21.30;99.90;;;;;;5015856;28;20825;-59
2021/08/25 10:24:27;;;;;;;7.20;4.67;;;21.60;99.90;;;;;;5015406;28;20398;-59
2021/08/25 10:26:59;;;;;;;6.10;4.40;;;21.50;99.90;;;;;;5015495;28;20816;-58
2021/08/25 10:29:29;;;;;;;5.63;4.90;;;21.40;99.90;;;;;;5015609;28;20172;-59
2021/08/25 10:31:57;;;;;;;5.03;4.53;;;21.40;99.90;;;;;;5015457;28;20430;-59
2021/08/25 10:34:27;;;;;;;5.00;4.50;;;21.10;99.90;;;;;;5015123;28;20867;-59
2021/08/25 10:37:11;;;;;;;7.97;5.30;;;21.10;99.90;;;;;;5016055;28;20453;-59
2021/08/25 10:39:41;;;;;;;5.80;4.50;;;21.20;99.90;;;;;;5015319;28;20457;-57
2021/08/25 10:42:08;;;;;;;5.20;4.40;;;21.30;99.90;;;;;;5014930;28;20418;-58
2021/08/25 10:44:47;;;;;;;5.00;4.50;;;21.30;99.90;;;;;;5015467;28;20399;-59
2021/08/25 10:47:15;;;;;;;5.40;4.90;;;21.00;99.90;;;;;;5015154;28;20398;-58
2021/08/25 10:49:48;;;;;;;4.70;4.30;;;21.10;99.90;;;;;;5005949;28;20417;-59
2021/08/25 10:52:13;;;;;;;5.40;4.90;;;21.30;99.90;;;;;;5015126;28;20423;-59
2021/08/25 10:54:40;;;;;;;4.90;4.43;;;21.30;99.90;;;;;;5015029;28;20930;-59
2021/08/25 10:57:16;;;;;;;7.57;4.40;;;21.70;99.60;;;;;;5014674;28;20692;-58
2021/08/25 10:59:42;;;;;;;6.63;4.43;;;23.20;97.20;;;;;;5015052;28;20411;-58
2021/08/25 11:02:08;;;;;;;5.13;4.63;;;24.10;95.20;;;;;;5014975;28;20808;-58
2021/08/25 11:04:34;;;;;;;4.80;4.30;;;24.70;94.60;;;;;;5015281;28;20230;-57
2021/08/25 11:07:02;;;;;;;5.20;4.70;;;26.00;93.50;;;;;;5014604;28;20427;-58
2021/08/25 11:09:37;;;;;;;5.20;4.67;;;26.30;91.60;;;;;;4997323;28;20190;-58
2021/08/25 11:12:05;;;;;;;4.93;4.20;;;27.20;90.10;;;;;;5014962;28;20437;-57
2021/08/25 11:14:37;;;;;;;5.47;4.27;;;27.60;87.90;;;;;;5014674;28;20430;-58
2021/08/25 11:17:05;;;;;;;5.60;4.53;;;27.10;87.60;;;;;;5015215;28;20504;-59
2021/08/25 11:19:34;;;;;;;5.57;4.47;;;26.40;89.60;;;;;;5014600;28;20915;-56
2021/08/25 11:22:01;;;;;;;4.80;4.30;;;26.70;88.50;;;;;;5014192;28;20458;-59
2021/08/25 11:24:41;;;;;;;5.97;5.20;;;27.40;87.80;;;;;;5014489;28;20883;-59
2021/08/25 11:27:28;;;;;;;4.93;4.43;;;28.20;85.40;;;;;;5014259;28;20906;-59
2021/08/25 11:30:10;;;;;;;6.57;4.97;;;26.60;88.50;;;;;;5014830;28;20387;-59
2021/08/25 11:32:41;;;;;;;7.13;5.40;;;25.30;91.90;;;;;;5014367;28;20431;-58
2021/08/25 11:35:08;;;;;;;5.83;4.97;;;25.40;91.50;;;;;;5014774;28;20394;-59
2021/08/25 11:37:34;;;;;;;6.17;5.10;;;25.80;91.40;;;;;;5013453;28;20451;-58
2021/08/25 11:40:04;;;;;;;5.47;4.80;;;26.20;90.70;;;;;;5014449;28;20407;-58
2021/08/25 11:42:31;;;;;;;6.67;5.23;;;25.80;90.10;;;;;;5013875;28;20207;-58
2021/08/25 11:44:57;;;;;;;4.97;4.37;;;26.40;87.20;;;;;;5014207;28;20427;-58
2021/08/25 11:47:25;;;;;;;5.30;4.47;;;26.70;87.20;;;;;;5014140;28;20414;-57
2021/08/25 11:49:57;;;;;;;5.23;4.80;;;27.60;84.80;;;;;;5014184;28;20419;-56
2021/08/25 11:52:34;;;;;;;8.53;4.90;;;27.90;81.60;;;;;;5014043;28;20423;-59
2021/08/25 11:55:04;;;;;;;5.33;4.80;;;27.00;82.80;;;;;;5022462;28;20911;-58
2021/08/25 11:57:49;;;;;;;5.30;4.80;;;27.30;82.10;;;;;;5033366;28;20437;-59
2021/08/25 12:00:21;;;;;;;7.20;4.97;;;27.70;79.60;;;;;;5033933;28;20386;-58
2021/08/25 12:02:51;;;;;;;5.60;4.80;;;26.30;81.60;;;;;;5033507;28;20422;-58
2021/08/25 12:05:37;;;;;;;5.90;4.47;;;26.50;80.60;;;;;;5033901;28;20493;-58
2021/08/25 12:08:10;;;;;;;5.47;4.90;;;27.00;81.30;;;;;;5033810;28;20905;-58
2021/08/25 12:10:37;;;;;;;5.10;4.23;;;27.60;77.20;;;;;;5027172;28;20411;-58
2021/08/25 12:13:03;;;;;;;5.97;5.13;;;28.10;75.90;;;;;;5014381;28;20454;-55
2021/08/25 12:15:51;;;;;;;5.03;4.53;;;28.70;74.40;;;;;;5014568;28;20942;-58
2021/08/25 12:18:25;;;;;;;4.93;4.00;;;28.50;74.70;;;;;;5013238;28;20475;-51
2021/08/25 12:20:57;;;;;;;7.33;5.10;;;29.30;72.40;;;;;;5007987;28;20443;-58
2021/08/25 12:23:25;;;;;;;5.70;5.10;;;29.00;73.60;;;;;;5026881;22;20498;-64
2021/08/25 12:25:53;;;;;;;5.43;4.60;;;31.10;68.30;;;;;;5013740;28;20423;-62
2021/08/25 12:28:34;;;;;;;5.40;4.30;;;30.90;66.00;;;;;;5013475;28;20399;-62
2021/08/25 12:31:17;;;;;;;5.13;4.63;;;29.40;68.20;;;;;;5013790;28;20402;-62
2021/08/25 12:33:44;;;;;;;4.87;4.43;;;26.90;71.90;;;;;;5010919;28;20427;-62
2021/08/25 12:36:31;;;;;;;6.03;4.67;;;26.70;73.30;;;;;;4993831;28;20404;-62